createdAt,value
2023-03-10T00:00:14.240Z,0.38
2023-03-10T00:02:46.716Z,0.49
2023-03-10T00:05:13.536Z,0.46
2023-03-10T00:07:40.265Z,0.36
2023-03-10T00:10:07.368Z,0.44
2023-03-10T00:12:34.127Z,0.38
2023-03-10T00:15:05.082Z,0.33
2023-03-10T00:17:31.766Z,0.24
2023-03-10T00:19:58.453Z,0.23
2023-03-10T00:22:25.273Z,0.22
2023-03-10T00:24:52.042Z,0.16
2023-03-10T00:27:34.699Z,0.11
2023-03-10T00:30:02.063Z,0.25
2023-03-10T00:32:34.825Z,0.28
2023-03-10T00:35:01.901Z,0.16
2023-03-10T00:37:28.578Z,0.28
2023-03-10T00:39:55.826Z,0.30
2023-03-10T00:42:22.970Z,0.44
2023-03-10T00:44:49.785Z,0.46
2023-03-10T00:47:16.479Z,0.51
2023-03-10T00:49:43.105Z,0.35
2023-03-10T00:52:09.901Z,0.31
2023-03-10T00:54:40.233Z,0.38
2023-03-10T00:57:07.228Z,0.23
2023-03-10T00:59:47.891Z,0.13
2023-03-10T01:02:16.285Z,0.12
2023-03-10T01:04:43.114Z,0.18
2023-03-10T01:07:09.925Z,0.02
2023-03-10T01:09:36.875Z,0.13
2023-03-10T01:12:03.869Z,0.07
2023-03-10T01:14:32.028Z,0.17
2023-03-10T01:16:59.602Z,0.22
2023-03-10T01:19:26.351Z,0.26
2023-03-10T01:21:53.046Z,0.29
2023-03-10T01:24:19.839Z,0.24
2023-03-10T01:26:46.537Z,0.18
2023-03-10T01:29:13.303Z,0.20
2023-03-10T01:31:42.071Z,0.03
2023-03-10T01:34:08.909Z,-0.01
2023-03-10T01:36:35.704Z,0.12
2023-03-10T01:39:02.423Z,0.05
2023-03-10T01:41:29.687Z,0.14
2023-03-10T01:43:57.225Z,0.33
2023-03-10T01:46:27.197Z,0.18
2023-03-10T01:49:00.248Z,0.17
2023-03-10T01:51:27.655Z,0.04
2023-03-10T01:53:54.529Z,-0.03
2023-03-10T01:56:21.277Z,0.15
2023-03-10T01:58:48.592Z,0.20
2023-03-10T02:01:17.032Z,0.28
2023-03-10T02:03:49.886Z,0.30
2023-03-10T02:06:19.590Z,0.41
2023-03-10T02:08:50.603Z,0.42
2023-03-10T02:11:19.928Z,0.40
2023-03-10T02:13:47.291Z,0.21
2023-03-10T02:16:15.377Z,0.37
2023-03-10T02:18:44.596Z,0.52
2023-03-10T02:21:41.295Z,0.61
2023-03-10T02:24:34.440Z,0.59
2023-03-10T02:27:12.961Z,0.58
2023-03-10T02:29:57.991Z,0.66
2023-03-10T02:32:27.384Z,0.60
2023-03-10T02:34:54.173Z,0.63
2023-03-10T02:37:24.799Z,0.63
2023-03-10T02:39:53.396Z,0.53
2023-03-10T02:42:21.218Z,0.58
2023-03-10T02:44:49.273Z,0.62
2023-03-10T02:47:16.632Z,0.64
2023-03-10T02:49:44.431Z,0.66
2023-03-10T02:52:38.498Z,0.60
2023-03-10T02:55:05.812Z,0.49
2023-03-10T02:57:32.523Z,0.58
2023-03-10T03:00:00.846Z,0.54
2023-03-10T03:02:27.590Z,0.44
2023-03-10T03:04:54.374Z,0.31
2023-03-10T03:07:21.148Z,0.17
2023-03-10T03:09:47.953Z,0.29
2023-03-10T03:12:14.843Z,0.21
2023-03-10T03:14:44.116Z,0.17
2023-03-10T03:17:10.847Z,0.14
2023-03-10T03:19:37.555Z,0.27
2023-03-10T03:22:04.260Z,0.35
2023-03-10T03:24:32.235Z,0.41
2023-03-10T03:26:59.226Z,0.43
2023-03-10T03:29:28.056Z,0.43
2023-03-10T03:31:55.118Z,0.46
2023-03-10T03:34:25.800Z,0.48
2023-03-10T03:36:55.622Z,0.48
2023-03-10T03:39:28.284Z,0.54
2023-03-10T03:41:58.815Z,0.48
2023-03-10T03:44:30.189Z,0.43
2023-03-10T03:46:57.132Z,0.38
2023-03-10T03:49:25.224Z,0.32
2023-03-10T03:51:52.198Z,0.23
2023-03-10T03:54:19.459Z,0.18
2023-03-10T03:56:46.522Z,0.12
2023-03-10T03:59:14.500Z,0.11
2023-03-10T04:01:41.699Z,0.36
2023-03-10T04:04:09.263Z,0.43
2023-03-10T04:06:36.277Z,0.34
2023-03-10T04:09:04.351Z,0.36
2023-03-10T04:11:32.751Z,0.41
2023-03-10T04:14:00.158Z,0.09
2023-03-10T04:16:27.574Z,0.26
2023-03-10T04:18:54.475Z,0.23
2023-03-10T04:21:21.219Z,0.15
2023-03-10T04:23:51.213Z,0.11
2023-03-10T04:26:22.627Z,0.11
2023-03-10T04:28:49.893Z,0.31
2023-03-10T04:31:22.150Z,0.38
2023-03-10T04:33:50.471Z,0.26
2023-03-10T04:36:19.240Z,0.13
2023-03-10T04:38:51.638Z,0.10
2023-03-10T04:41:19.187Z,0.12
2023-03-10T04:43:47.871Z,0.22
2023-03-10T04:46:16.765Z,0.33
2023-03-10T04:48:44.484Z,0.37
2023-03-10T04:51:12.626Z,0.40
2023-03-10T04:53:45.810Z,0.45
2023-03-10T04:56:12.915Z,0.45
2023-03-10T04:58:40.431Z,0.44
2023-03-10T05:01:12.405Z,0.56
2023-03-10T05:03:43.561Z,0.62
2023-03-10T05:06:16.007Z,0.57
2023-03-10T05:08:46.984Z,0.58
2023-03-10T05:11:15.044Z,0.44
2023-03-10T05:13:41.815Z,0.37
2023-03-10T05:16:16.951Z,0.46
2023-03-10T05:18:45.579Z,0.49
2023-03-10T05:21:13.215Z,0.51
2023-03-10T05:23:41.090Z,0.57
2023-03-10T05:26:09.747Z,0.61
2023-03-10T05:28:37.057Z,0.61
2023-03-10T05:31:12.759Z,0.60
2023-03-10T05:33:44.824Z,0.63
2023-03-10T05:36:14.863Z,0.62
2023-03-10T05:38:44.068Z,0.63
2023-03-10T05:41:13.785Z,0.58
2023-03-10T05:43:41.879Z,0.51
2023-03-10T05:46:10.835Z,0.59
2023-03-10T05:48:43.877Z,0.60
2023-03-10T05:51:12.192Z,0.64
2023-03-10T05:53:39.304Z,0.61
2023-03-10T05:56:12.224Z,0.61
2023-03-10T05:58:39.945Z,0.72
2023-03-10T06:01:11.540Z,0.63
2023-03-10T06:03:41.184Z,0.66
2023-03-10T06:06:08.289Z,0.65
2023-03-10T06:08:35.429Z,0.68
2023-03-10T06:11:02.671Z,0.65
2023-03-10T06:13:29.526Z,0.62
2023-03-10T06:16:04.110Z,0.53
2023-03-10T06:18:32.137Z,0.42
2023-03-10T06:20:58.882Z,0.30
2023-03-10T06:23:26.366Z,0.29
2023-03-10T06:26:01.995Z,0.44
2023-03-10T06:28:33.215Z,0.49
2023-03-10T06:31:01.570Z,0.56
2023-03-10T06:33:28.878Z,0.58
2023-03-10T06:35:55.947Z,0.60
2023-03-10T06:38:23.130Z,0.57
2023-03-10T06:40:50.090Z,0.48
2023-03-10T06:43:16.973Z,0.56
2023-03-10T06:45:45.216Z,0.56
2023-03-10T06:48:12.512Z,0.68
2023-03-10T06:50:48.039Z,0.80
2023-03-10T06:53:16.850Z,0.80
2023-03-10T06:55:43.734Z,0.78
2023-03-10T06:58:10.593Z,0.80
2023-03-10T07:00:39.171Z,0.85
2023-03-10T07:03:06.090Z,0.87
2023-03-10T07:05:32.816Z,0.76
2023-03-10T07:07:59.585Z,0.83
2023-03-10T07:10:26.387Z,0.90
2023-03-10T07:12:55.370Z,0.89
2023-03-10T07:15:23.052Z,0.93
2023-03-10T07:17:49.849Z,0.92
2023-03-10T07:20:17.412Z,0.91
2023-03-10T07:22:44.699Z,0.90
2023-03-10T07:25:11.521Z,0.94
2023-03-10T07:27:38.307Z,0.92
2023-03-10T07:30:06.143Z,0.88
2023-03-10T07:32:33.114Z,0.95
2023-03-10T07:34:59.901Z,0.97
2023-03-10T07:37:26.649Z,1.00
2023-03-10T07:39:54.711Z,0.99
2023-03-10T07:42:21.599Z,1.04
2023-03-10T07:44:48.567Z,1.10
2023-03-10T07:47:15.321Z,1.13
2023-03-10T07:49:47.010Z,1.17
2023-03-10T07:52:15.366Z,1.09
2023-03-10T07:54:44.389Z,1.06
2023-03-10T07:57:12.868Z,1.10
2023-03-10T07:59:40.372Z,1.02
2023-03-10T08:02:07.505Z,1.04
2023-03-10T08:04:34.371Z,1.10
2023-03-10T08:07:02.425Z,1.14
2023-03-10T08:09:29.928Z,1.13
2023-03-10T08:11:58.969Z,0.93
2023-03-10T08:14:28.232Z,0.83
2023-03-10T08:16:56.837Z,0.84
2023-03-10T08:19:24.400Z,0.85
2023-03-10T08:21:52.167Z,0.75
2023-03-10T08:24:18.881Z,0.68
2023-03-10T08:26:45.646Z,0.72
2023-03-10T08:29:12.469Z,0.86
2023-03-10T08:31:41.371Z,0.92
2023-03-10T08:34:19.705Z,0.87
2023-03-10T08:36:52.201Z,0.90
2023-03-10T08:39:27.743Z,0.94
2023-03-10T08:41:55.281Z,0.89
2023-03-10T08:44:22.312Z,0.85
2023-03-10T08:46:49.982Z,0.82
2023-03-10T08:49:18.606Z,0.96
2023-03-10T08:51:50.643Z,1.07
2023-03-10T08:54:22.512Z,0.91
2023-03-10T08:56:49.761Z,1.00
2023-03-10T08:59:23.518Z,0.98
2023-03-10T09:01:54.032Z,0.99
2023-03-10T09:04:23.735Z,1.08
2023-03-10T09:06:51.244Z,1.12
2023-03-10T09:09:24.605Z,1.15
2023-03-10T09:11:56.373Z,1.23
2023-03-10T09:14:23.727Z,1.35
2023-03-10T09:16:50.864Z,1.38
2023-03-10T09:19:26.250Z,1.45
2023-03-10T09:21:55.518Z,1.41
2023-03-10T09:24:38.279Z,1.51
2023-03-10T09:27:15.388Z,1.41
2023-03-10T09:29:51.190Z,1.44
2023-03-10T09:32:24.003Z,1.31
2023-03-10T09:34:54.398Z,1.42
2023-03-10T09:37:28.511Z,1.53
2023-03-10T09:40:16.393Z,1.63
2023-03-10T09:42:57.576Z,1.67
2023-03-10T09:45:56.610Z,1.67
2023-03-10T09:48:50.637Z,1.63
2023-03-10T09:51:32.020Z,1.44
2023-03-10T09:54:25.938Z,1.40
2023-03-10T09:56:55.254Z,1.41
2023-03-10T09:59:43.043Z,1.48
2023-03-10T10:02:39.566Z,1.35
2023-03-10T10:05:18.486Z,1.34
2023-03-10T10:07:52.406Z,1.30
2023-03-10T10:10:39.601Z,1.31
2023-03-10T10:13:16.811Z,1.30
2023-03-10T10:15:51.331Z,1.32
2023-03-10T10:18:27.031Z,1.33
2023-03-10T10:21:13.589Z,1.41
2023-03-10T10:23:51.360Z,1.44
2023-03-10T10:26:24.258Z,1.50
2023-03-10T10:29:07.127Z,1.52
2023-03-10T10:31:36.046Z,1.42
2023-03-10T10:34:22.280Z,1.54
2023-03-10T10:36:55.388Z,1.61
2023-03-10T10:39:41.066Z,1.49
2023-03-10T10:42:26.904Z,1.59
2023-03-10T10:45:02.567Z,1.75
2023-03-10T10:47:36.861Z,1.75
2023-03-10T10:50:24.106Z,1.81
2023-03-10T10:53:16.225Z,1.94
2023-03-10T10:55:44.773Z,1.97
2023-03-10T10:58:28.644Z,2.03
2023-03-10T11:00:59.327Z,2.15
2023-03-10T11:03:28.321Z,2.15
2023-03-10T11:05:56.515Z,2.21
2023-03-10T11:08:27.221Z,2.38
2023-03-10T11:10:59.768Z,2.42
2023-03-10T11:13:35.877Z,2.41
2023-03-10T11:16:23.959Z,2.56
2023-03-10T11:18:58.666Z,2.66
2023-03-10T11:21:32.594Z,2.79
2023-03-10T11:24:17.773Z,2.93
2023-03-10T11:26:52.258Z,3.08
2023-03-10T11:29:28.223Z,3.20
2023-03-10T11:32:04.108Z,3.41
2023-03-10T11:34:32.392Z,3.52
2023-03-10T11:37:05.658Z,3.49
2023-03-10T11:39:46.284Z,3.77
2023-03-10T11:42:32.644Z,3.88
2023-03-10T11:45:13.075Z,4.03
2023-03-10T11:48:03.588Z,4.26
2023-03-10T11:50:38.357Z,4.27
2023-03-10T11:53:26.284Z,4.15
2023-03-10T11:55:54.145Z,4.12
2023-03-10T11:58:28.970Z,4.27
2023-03-10T12:00:56.114Z,4.35
2023-03-10T12:03:43.628Z,4.15
2023-03-10T12:06:14.349Z,4.25
2023-03-10T12:08:41.868Z,4.20
2023-03-10T12:11:15.518Z,4.25
2023-03-10T12:13:47.291Z,4.21
2023-03-10T12:16:26.099Z,4.24
2023-03-10T12:18:56.889Z,4.27
2023-03-10T12:39:32.775Z,4.40
2023-03-10T12:42:04.259Z,4.45
2023-03-10T12:57:59.562Z,3.97
2023-03-10T13:03:53.811Z,3.88
2023-03-10T13:06:47.926Z,4.03
2023-03-10T13:10:22.819Z,4.07
2023-03-10T13:13:07.096Z,4.18
2023-03-10T13:48:39.506Z,3.58
2023-03-10T13:51:58.969Z,3.34
2023-03-10T14:02:13.701Z,3.63
2023-03-10T14:05:57.064Z,3.46
2023-03-10T14:08:34.082Z,3.47
2023-03-10T14:11:25.239Z,3.34
2023-03-10T14:41:40.195Z,2.61
2023-03-10T14:44:10.079Z,2.53
2023-03-10T14:50:23.874Z,2.36
2023-03-10T14:52:58.183Z,2.33
2023-03-10T14:55:41.926Z,2.27
2023-03-10T14:59:07.969Z,2.34
2023-03-10T15:01:41.955Z,2.28
2023-03-10T15:04:27.646Z,2.28
2023-03-10T15:07:04.607Z,2.17
2023-03-10T15:10:10.588Z,2.15
2023-03-10T15:13:02.139Z,2.05
2023-03-10T15:16:03.490Z,1.90
2023-03-10T15:19:00.627Z,1.74
2023-03-10T15:21:27.874Z,1.64
2023-03-10T15:24:23.604Z,1.67
2023-03-10T15:27:34.044Z,1.44
2023-03-10T15:38:21.304Z,1.19
2023-03-10T15:40:58.346Z,1.15
2023-03-10T15:44:33.229Z,1.20
2023-03-10T15:47:11.102Z,1.12
2023-03-10T15:50:25.957Z,1.20
2023-03-10T15:53:26.022Z,1.17
2023-03-10T15:55:56.608Z,1.18
2023-03-10T15:58:30.427Z,1.16
2023-03-10T16:01:21.074Z,1.13
2023-03-10T16:03:58.628Z,1.10
2023-03-10T16:06:40.277Z,1.04
2023-03-10T16:09:51.946Z,0.93
2023-03-10T16:12:23.850Z,0.89
2023-03-10T16:14:55.548Z,0.87
2023-03-10T16:17:29.160Z,0.85
2023-03-10T16:20:00.890Z,1.06
2023-03-10T16:22:27.926Z,0.99
2023-03-10T16:24:54.925Z,1.07
2023-03-10T16:27:21.733Z,0.95
2023-03-10T16:29:51.943Z,1.09
2023-03-10T16:32:19.865Z,1.18
2023-03-10T16:35:04.337Z,1.19
2023-03-10T16:37:40.653Z,1.34
2023-03-10T16:40:26.777Z,0.99
2023-03-10T16:42:58.455Z,0.95
2023-03-10T16:45:33.856Z,0.83
2023-03-10T16:48:09.768Z,0.74
2023-03-10T16:50:38.036Z,0.76
2023-03-10T16:53:07.922Z,0.72
2023-03-10T16:55:35.094Z,0.77
2023-03-10T16:58:03.702Z,0.72
2023-03-10T17:00:31.400Z,0.68
2023-03-10T17:03:00.432Z,0.75
2023-03-10T17:13:00.556Z,0.88
2023-03-10T17:16:30.475Z,1.00
2023-03-10T17:19:24.612Z,0.98
2023-03-10T17:22:12.074Z,0.86
2023-03-10T17:24:42.008Z,0.85
2023-03-10T17:27:20.882Z,0.82
2023-03-10T17:30:03.614Z,0.76
2023-03-10T17:33:04.700Z,0.90
2023-03-10T17:36:00.738Z,0.82
2023-03-10T17:38:41.495Z,0.69
2023-03-10T17:41:12.260Z,0.63
2023-03-10T17:43:57.161Z,0.59
2023-03-10T17:46:45.736Z,0.55
2023-03-10T17:50:02.601Z,0.52
2023-03-10T17:52:42.885Z,0.45
2023-03-10T17:55:34.578Z,0.48
2023-03-10T17:58:08.843Z,0.37
2023-03-10T18:00:36.706Z,0.38
2023-03-10T18:03:37.127Z,0.53
2023-03-10T18:06:33.907Z,0.70
2023-03-10T18:09:32.731Z,0.78
2023-03-10T18:12:23.670Z,0.82
2023-03-10T18:15:09.725Z,0.87
2023-03-10T18:25:15.005Z,0.66
2023-03-10T18:31:08.181Z,0.69
2023-03-10T18:34:10.509Z,0.66
2023-03-10T18:37:28.402Z,0.66
2023-03-10T18:40:11.114Z,0.46
2023-03-10T18:46:28.095Z,0.31
2023-03-10T18:52:30.550Z,0.21
2023-03-10T18:55:24.449Z,0.20
2023-03-10T18:58:20.974Z,0.23
2023-03-10T19:00:48.218Z,0.20
2023-03-10T19:03:23.916Z,0.23
2023-03-10T19:06:16.909Z,0.21
2023-03-10T19:09:12.647Z,0.28
2023-03-10T19:12:18.449Z,0.27
2023-03-10T19:21:43.545Z,0.26
2023-03-10T19:25:17.811Z,0.27
2023-03-10T19:28:35.454Z,0.26
2023-03-10T19:31:24.658Z,0.31
2023-03-10T19:33:56.821Z,0.29
2023-03-10T19:36:30.371Z,0.22
2023-03-10T19:39:00.814Z,0.28
2023-03-10T19:41:44.763Z,0.24
2023-03-10T19:44:31.093Z,0.28
2023-03-10T19:47:00.974Z,0.23
2023-03-10T19:55:58.806Z,0.22
2023-03-10T19:58:48.638Z,0.12
2023-03-10T20:01:57.084Z,0.21
2023-03-10T20:04:24.033Z,0.18
2023-03-10T20:06:51.012Z,0.15
2023-03-10T20:09:19.076Z,0.15
2023-03-10T20:11:51.324Z,0.21
2023-03-10T20:17:09.600Z,0.13
2023-03-10T20:19:36.833Z,0.18
2023-03-10T20:22:04.809Z,0.12
2023-03-10T20:24:31.928Z,0.11
2023-03-10T20:27:00.348Z,0.01
2023-03-10T20:29:30.470Z,-0.03
2023-03-10T20:31:57.508Z,0.03
2023-03-10T20:34:26.002Z,0.02
2023-03-10T20:36:55.260Z,-0.05
2023-03-10T20:39:22.481Z,-0.02
2023-03-10T20:41:49.906Z,-0.02
2023-03-10T20:44:17.281Z,-0.11
2023-03-10T20:46:47.203Z,-0.09
2023-03-10T20:49:18.414Z,0.01
2023-03-10T20:51:46.122Z,-0.03
2023-03-10T20:54:19.245Z,-0.02
2023-03-10T20:56:51.862Z,-0.07
2023-03-10T20:59:27.217Z,-0.06
2023-03-10T21:02:38.310Z,-0.10
2023-03-10T21:05:08.708Z,-0.14
2023-03-10T21:07:35.790Z,-0.11
2023-03-10T21:10:04.505Z,-0.10
2023-03-10T21:12:34.450Z,-0.07
2023-03-10T21:15:07.550Z,-0.08
2023-03-10T21:17:37.510Z,-0.07
2023-03-10T21:20:08.177Z,-0.03
2023-03-10T21:22:35.680Z,-0.06
2023-03-10T21:25:06.968Z,-0.13
2023-03-10T21:27:35.849Z,-0.13
2023-03-10T21:30:08.076Z,-0.13
2023-03-10T21:32:35.494Z,-0.13
2023-03-10T21:35:05.231Z,-0.19
2023-03-10T21:37:32.959Z,-0.17
2023-03-10T21:40:01.306Z,-0.13
2023-03-10T21:42:28.182Z,-0.21
2023-03-10T21:44:56.076Z,-0.16
2023-03-10T21:47:28.729Z,-0.26
2023-03-10T21:49:58.068Z,-0.25
2023-03-10T21:52:35.234Z,-0.29
2023-03-10T21:55:06.438Z,-0.29
2023-03-10T21:57:34.581Z,-0.18
2023-03-10T22:00:04.254Z,-0.28
2023-03-10T22:02:37.838Z,-0.26
2023-03-10T22:05:06.588Z,-0.24
2023-03-10T22:07:55.387Z,-0.28
2023-03-10T22:10:25.746Z,-0.32
2023-03-10T22:12:53.041Z,-0.37
2023-03-10T22:15:24.185Z,-0.35
2023-03-10T22:17:54.184Z,-0.29
2023-03-10T22:20:23.941Z,-0.29
2023-03-10T22:22:53.435Z,-0.19
2023-03-10T22:25:21.257Z,-0.30
2023-03-10T22:27:53.642Z,-0.24
2023-03-10T22:30:21.331Z,-0.31
2023-03-10T22:32:49.820Z,-0.23
2023-03-10T22:35:18.094Z,-0.24
2023-03-10T22:37:47.194Z,-0.23
2023-03-10T22:40:17.025Z,-0.23
2023-03-10T22:42:44.787Z,-0.24
2023-03-10T22:45:17.697Z,-0.34
2023-03-10T22:47:44.717Z,-0.35
2023-03-10T22:50:25.298Z,-0.36
2023-03-10T22:52:52.811Z,-0.38
2023-03-10T22:55:24.672Z,-0.42
2023-03-10T22:57:53.046Z,-0.39
2023-03-10T23:00:22.116Z,-0.34
2023-03-10T23:02:50.514Z,-0.45
2023-03-10T23:05:18.000Z,-0.49
2023-03-10T23:07:45.899Z,-0.52
2023-03-10T23:10:19.444Z,-0.43
2023-03-10T23:12:49.602Z,-0.44
2023-03-10T23:15:26.423Z,-0.47
2023-03-10T23:17:54.729Z,-0.47
2023-03-10T23:20:27.774Z,-0.45
2023-03-10T23:22:56.327Z,-0.44
2023-03-10T23:25:32.240Z,-0.46
2023-03-10T23:27:59.868Z,-0.40
2023-03-10T23:30:27.455Z,-0.40
2023-03-10T23:32:55.088Z,-0.44
2023-03-10T23:35:26.918Z,-0.40
2023-03-10T23:38:02.927Z,-0.36
2023-03-10T23:40:34.494Z,-0.40
2023-03-10T23:43:09.161Z,-0.38
2023-03-10T23:45:40.282Z,-0.39
2023-03-10T23:48:09.202Z,-0.39
2023-03-10T23:50:42.270Z,-0.46
2023-03-10T23:53:18.795Z,-0.45
2023-03-10T23:55:46.680Z,-0.43
2023-03-10T23:58:20.443Z,-0.43
